sensor_id;sensor_type;location;lat;lon;timestamp;P1;durP1;ratioP1;P2;durP2;ratioP2
50002;SDS011;35889;51.442;6.408;2022-09-01T00:01:55;0.60;;;0.60;;
50002;SDS011;35889;51.442;6.408;2022-09-01T00:04:22;0.60;;;0.60;;
50002;SDS011;35889;51.442;6.408;2022-09-01T00:09:19;0.70;;;0.70;;
50002;SDS011;35889;51.442;6.408;2022-09-01T00:11:46;0.60;;;0.60;;
50002;SDS011;35889;51.442;6.408;2022-09-01T00:14:14;0.60;;;0.60;;
50002;SDS011;35889;51.442;6.408;2022-09-01T00:16:39;0.60;;;0.60;;
50002;SDS011;35889;51.442;6.408;2022-09-01T00:19:05;0.60;;;0.60;;
50002;SDS011;35889;51.442;6.408;2022-09-01T00:21:36;0.60;;;0.60;;
50002;SDS011;35889;51.442;6.408;2022-09-01T00:24:03;0.60;;;0.60;;
50002;SDS011;35889;51.442;6.408;2022-09-01T00:26:29;0.60;;;0.60;;
50002;SDS011;35889;51.442;6.408;2022-09-01T00:28:55;0.60;;;0.60;;
50002;SDS011;35889;51.442;6.408;2022-09-01T00:31:21;0.70;;;0.70;;
50002;SDS011;35889;51.442;6.408;2022-09-01T00:33:47;0.60;;;0.60;;
50002;SDS011;35889;51.442;6.408;2022-09-01T00:36:13;0.70;;;0.70;;
50002;SDS011;35889;51.442;6.408;2022-09-01T00:38:39;0.70;;;0.70;;
50002;SDS011;35889;51.442;6.408;2022-09-01T00:41:06;0.60;;;0.60;;
50002;SDS011;35889;51.442;6.408;2022-09-01T00:43:41;0.60;;;0.60;;
50002;SDS011;35889;51.442;6.408;2022-09-01T00:46:11;0.60;;;0.60;;
50002;SDS011;35889;51.442;6.408;2022-09-01T00:48:40;0.60;;;0.60;;
50002;SDS011;35889;51.442;6.408;2022-09-01T00:51:06;0.60;;;0.60;;
50002;SDS011;35889;51.442;6.408;2022-09-01T00:53:33;0.60;;;0.60;;
50002;SDS011;35889;51.442;6.408;2022-09-01T00:56:00;0.60;;;0.60;;
50002;SDS011;35889;51.442;6.408;2022-09-01T00:58:26;0.60;;;0.60;;
50002;SDS011;35889;51.442;6.408;2022-09-01T01:00:51;0.65;;;0.65;;
50002;SDS011;35889;51.442;6.408;2022-09-01T01:03:18;0.65;;;0.65;;
50002;SDS011;35889;51.442;6.408;2022-09-01T01:05:49;0.68;;;0.68;;
50002;SDS011;35889;51.442;6.408;2022-09-01T01:08:27;0.70;;;0.70;;
50002;SDS011;35889;51.442;6.408;2022-09-01T01:11:01;0.60;;;0.60;;
50002;SDS011;35889;51.442;6.408;2022-09-01T01:16:22;0.60;;;0.60;;
50002;SDS011;35889;51.442;6.408;2022-09-01T01:18:49;0.60;;;0.60;;
50002;SDS011;35889;51.442;6.408;2022-09-01T01:21:18;0.60;;;0.60;;
50002;SDS011;35889;51.442;6.408;2022-09-01T01:26:48;0.55;;;0.55;;
50002;SDS011;35889;51.442;6.408;2022-09-01T01:29:14;0.60;;;0.60;;
50002;SDS011;35889;51.442;6.408;2022-09-01T01:31:41;0.60;;;0.60;;
50002;SDS011;35889;51.442;6.408;2022-09-01T01:34:07;0.70;;;0.70;;
50002;SDS011;35889;51.442;6.408;2022-09-01T01:36:35;0.60;;;0.60;;
50002;SDS011;35889;51.442;6.408;2022-09-01T01:39:04;0.60;;;0.60;;
50002;SDS011;35889;51.442;6.408;2022-09-01T01:41:33;0.70;;;0.70;;
50002;SDS011;35889;51.442;6.408;2022-09-01T01:44:00;0.60;;;0.60;;
50002;SDS011;35889;51.442;6.408;2022-09-01T01:46:32;0.65;;;0.65;;
50002;SDS011;35889;51.442;6.408;2022-09-01T01:51:28;0.60;;;0.60;;
50002;SDS011;35889;51.442;6.408;2022-09-01T01:53:57;0.60;;;0.60;;
50002;SDS011;35889;51.442;6.408;2022-09-01T01:56:30;0.60;;;0.60;;
50002;SDS011;35889;51.442;6.408;2022-09-01T01:58:58;0.52;;;0.52;;
50002;SDS011;35889;51.442;6.408;2022-09-01T02:01:26;0.60;;;0.60;;
50002;SDS011;35889;51.442;6.408;2022-09-01T02:03:56;0.60;;;0.60;;
50002;SDS011;35889;51.442;6.408;2022-09-01T02:06:23;0.60;;;0.60;;
50002;SDS011;35889;51.442;6.408;2022-09-01T02:08:54;0.60;;;0.60;;
50002;SDS011;35889;51.442;6.408;2022-09-01T02:11:27;0.60;;;0.60;;
50002;SDS011;35889;51.442;6.408;2022-09-01T02:13:53;0.60;;;0.60;;
50002;SDS011;35889;51.442;6.408;2022-09-01T02:16:23;0.60;;;0.60;;
50002;SDS011;35889;51.442;6.408;2022-09-01T02:18:51;0.70;;;0.70;;
50002;SDS011;35889;51.442;6.408;2022-09-01T02:21:22;0.60;;;0.60;;
50002;SDS011;35889;51.442;6.408;2022-09-01T02:23:50;0.60;;;0.60;;
50002;SDS011;35889;51.442;6.408;2022-09-01T02:26:32;0.70;;;0.70;;
50002;SDS011;35889;51.442;6.408;2022-09-01T02:28:59;0.60;;;0.60;;
50002;SDS011;35889;51.442;6.408;2022-09-01T02:31:30;0.60;;;0.60;;
50002;SDS011;35889;51.442;6.408;2022-09-01T02:36:25;0.60;;;0.60;;
50002;SDS011;35889;51.442;6.408;2022-09-01T02:38:51;0.70;;;0.70;;
50002;SDS011;35889;51.442;6.408;2022-09-01T02:41:18;0.63;;;0.63;;
50002;SDS011;35889;51.442;6.408;2022-09-01T02:43:44;0.70;;;0.70;;
50002;SDS011;35889;51.442;6.408;2022-09-01T02:46:10;0.60;;;0.60;;
50002;SDS011;35889;51.442;6.408;2022-09-01T02:48:38;0.70;;;0.70;;
50002;SDS011;35889;51.442;6.408;2022-09-01T02:51:10;0.65;;;0.65;;
50002;SDS011;35889;51.442;6.408;2022-09-01T02:53:41;0.70;;;0.70;;
50002;SDS011;35889;51.442;6.408;2022-09-01T02:56:09;0.70;;;0.70;;
50002;SDS011;35889;51.442;6.408;2022-09-01T03:01:13;0.70;;;0.70;;
50002;SDS011;35889;51.442;6.408;2022-09-01T03:03:50;0.60;;;0.60;;
50002;SDS011;35889;51.442;6.408;2022-09-01T03:06:18;0.60;;;0.60;;
50002;SDS011;35889;51.442;6.408;2022-09-01T03:08:45;0.60;;;0.60;;
50002;SDS011;35889;51.442;6.408;2022-09-01T03:11:11;0.70;;;0.70;;
50002;SDS011;35889;51.442;6.408;2022-09-01T03:13:37;0.70;;;0.70;;
50002;SDS011;35889;51.442;6.408;2022-09-01T03:16:05;0.60;;;0.60;;
50002;SDS011;35889;51.442;6.408;2022-09-01T03:18:31;0.70;;;0.70;;
50002;SDS011;35889;51.442;6.408;2022-09-01T03:20:58;0.60;;;0.60;;
50002;SDS011;35889;51.442;6.408;2022-09-01T03:23:23;0.60;;;0.60;;
50002;SDS011;35889;51.442;6.408;2022-09-01T03:25:49;0.60;;;0.60;;
50002;SDS011;35889;51.442;6.408;2022-09-01T03:28:15;0.60;;;0.60;;
50002;SDS011;35889;51.442;6.408;2022-09-01T03:30:48;0.60;;;0.60;;
50002;SDS011;35889;51.442;6.408;2022-09-01T03:33:16;0.70;;;0.70;;
50002;SDS011;35889;51.442;6.408;2022-09-01T03:35:43;0.60;;;0.60;;
50002;SDS011;35889;51.442;6.408;2022-09-01T03:38:09;0.60;;;0.60;;
50002;SDS011;35889;51.442;6.408;2022-09-01T03:40:37;0.70;;;0.70;;
50002;SDS011;35889;51.442;6.408;2022-09-01T03:43:03;0.60;;;0.60;;
50002;SDS011;35889;51.442;6.408;2022-09-01T03:45:30;0.60;;;0.60;;
50002;SDS011;35889;51.442;6.408;2022-09-01T03:48:03;0.60;;;0.60;;
50002;SDS011;35889;51.442;6.408;2022-09-01T03:50:34;0.60;;;0.60;;
50002;SDS011;35889;51.442;6.408;2022-09-01T03:53:04;0.70;;;0.70;;
50002;SDS011;35889;51.442;6.408;2022-09-01T03:55:31;0.60;;;0.60;;
50002;SDS011;35889;51.442;6.408;2022-09-01T03:57:59;0.60;;;0.60;;
50002;SDS011;35889;51.442;6.408;2022-09-01T04:00:35;0.70;;;0.70;;
50002;SDS011;35889;51.442;6.408;2022-09-01T04:03:04;0.60;;;0.60;;
50002;SDS011;35889;51.442;6.408;2022-09-01T04:05:32;0.60;;;0.60;;
50002;SDS011;35889;51.442;6.408;2022-09-01T04:07:59;0.73;;;0.73;;
50002;SDS011;35889;51.442;6.408;2022-09-01T04:10:35;0.60;;;0.60;;
50002;SDS011;35889;51.442;6.408;2022-09-01T04:13:04;0.70;;;0.70;;
50002;SDS011;35889;51.442;6.408;2022-09-01T04:15:35;0.70;;;0.70;;
50002;SDS011;35889;51.442;6.408;2022-09-01T04:18:02;0.70;;;0.70;;
50002;SDS011;35889;51.442;6.408;2022-09-01T04:20:35;0.70;;;0.70;;
50002;SDS011;35889;51.442;6.408;2022-09-01T04:23:16;0.60;;;0.60;;
50002;SDS011;35889;51.442;6.408;2022-09-01T04:25:54;0.70;;;0.70;;
50002;SDS011;35889;51.442;6.408;2022-09-01T04:28:22;0.60;;;0.60;;
50002;SDS011;35889;51.442;6.408;2022-09-01T04:30:50;0.60;;;0.60;;
50002;SDS011;35889;51.442;6.408;2022-09-01T04:33:21;0.60;;;0.60;;
50002;SDS011;35889;51.442;6.408;2022-09-01T04:35:48;0.60;;;0.60;;
50002;SDS011;35889;51.442;6.408;2022-09-01T04:38:16;0.60;;;0.60;;
50002;SDS011;35889;51.442;6.408;2022-09-01T04:40:43;0.60;;;0.60;;
50002;SDS011;35889;51.442;6.408;2022-09-01T04:43:09;0.65;;;0.65;;
50002;SDS011;35889;51.442;6.408;2022-09-01T04:45:35;0.60;;;0.60;;
50002;SDS011;35889;51.442;6.408;2022-09-01T04:48:04;0.50;;;0.50;;
50002;SDS011;35889;51.442;6.408;2022-09-01T04:50:30;0.55;;;0.55;;
50002;SDS011;35889;51.442;6.408;2022-09-01T04:53:15;0.70;;;0.70;;
50002;SDS011;35889;51.442;6.408;2022-09-01T04:55:45;0.60;;;0.60;;
50002;SDS011;35889;51.442;6.408;2022-09-01T04:58:13;0.60;;;0.60;;
50002;SDS011;35889;51.442;6.408;2022-09-01T05:00:42;0.60;;;0.60;;
50002;SDS011;35889;51.442;6.408;2022-09-01T05:03:09;0.60;;;0.60;;
50002;SDS011;35889;51.442;6.408;2022-09-01T05:05:55;0.60;;;0.60;;
50002;SDS011;35889;51.442;6.408;2022-09-01T05:08:22;0.60;;;0.60;;
50002;SDS011;35889;51.442;6.408;2022-09-01T05:10:49;0.70;;;0.70;;
50002;SDS011;35889;51.442;6.408;2022-09-01T05:13:31;0.60;;;0.60;;
50002;SDS011;35889;51.442;6.408;2022-09-01T05:16:00;0.70;;;0.70;;
50002;SDS011;35889;51.442;6.408;2022-09-01T05:18:28;0.70;;;0.70;;
50002;SDS011;35889;51.442;6.408;2022-09-01T05:20:54;0.60;;;0.60;;
50002;SDS011;35889;51.442;6.408;2022-09-01T05:23:21;0.60;;;0.60;;
50002;SDS011;35889;51.442;6.408;2022-09-01T05:25:48;0.60;;;0.60;;
50002;SDS011;35889;51.442;6.408;2022-09-01T05:28:16;0.60;;;0.60;;
50002;SDS011;35889;51.442;6.408;2022-09-01T05:30:43;0.60;;;0.60;;
50002;SDS011;35889;51.442;6.408;2022-09-01T05:33:11;0.60;;;0.60;;
50002;SDS011;35889;51.442;6.408;2022-09-01T05:35:41;0.70;;;0.70;;
50002;SDS011;35889;51.442;6.408;2022-09-01T05:38:10;0.60;;;0.60;;
50002;SDS011;35889;51.442;6.408;2022-09-01T05:40:41;0.60;;;0.60;;
50002;SDS011;35889;51.442;6.408;2022-09-01T05:43:09;0.65;;;0.65;;
50002;SDS011;35889;51.442;6.408;2022-09-01T05:45:38;0.60;;;0.60;;
50002;SDS011;35889;51.442;6.408;2022-09-01T05:48:07;0.60;;;0.60;;
50002;SDS011;35889;51.442;6.408;2022-09-01T05:50:34;0.60;;;0.60;;
50002;SDS011;35889;51.442;6.408;2022-09-01T05:53:00;0.60;;;0.60;;
50002;SDS011;35889;51.442;6.408;2022-09-01T05:55:27;0.70;;;0.70;;
50002;SDS011;35889;51.442;6.408;2022-09-01T05:57:59;0.70;;;0.70;;
50002;SDS011;35889;51.442;6.408;2022-09-01T06:00:25;0.70;;;0.70;;
50002;SDS011;35889;51.442;6.408;2022-09-01T06:02:59;0.60;;;0.60;;
50002;SDS011;35889;51.442;6.408;2022-09-01T06:05:28;0.70;;;0.70;;
50002;SDS011;35889;51.442;6.408;2022-09-01T06:07:56;0.63;;;0.63;;
50002;SDS011;35889;51.442;6.408;2022-09-01T06:10:21;0.60;;;0.60;;
50002;SDS011;35889;51.442;6.408;2022-09-01T06:12:47;0.60;;;0.60;;
50002;SDS011;35889;51.442;6.408;2022-09-01T06:15:15;0.70;;;0.70;;
50002;SDS011;35889;51.442;6.408;2022-09-01T06:17:48;0.63;;;0.63;;
50002;SDS011;35889;51.442;6.408;2022-09-01T06:20:15;0.63;;;0.63;;
50002;SDS011;35889;51.442;6.408;2022-09-01T06:22:43;0.60;;;0.60;;
50002;SDS011;35889;51.442;6.408;2022-09-01T06:25:09;0.60;;;0.60;;
50002;SDS011;35889;51.442;6.408;2022-09-01T06:27:37;0.60;;;0.60;;
50002;SDS011;35889;51.442;6.408;2022-09-01T06:30:07;0.70;;;0.70;;
50002;SDS011;35889;51.442;6.408;2022-09-01T06:32:43;0.65;;;0.65;;
50002;SDS011;35889;51.442;6.408;2022-09-01T06:35:10;0.70;;;0.70;;
50002;SDS011;35889;51.442;6.408;2022-09-01T06:37:39;0.60;;;0.60;;
50002;SDS011;35889;51.442;6.408;2022-09-01T06:40:09;0.70;;;0.70;;
50002;SDS011;35889;51.442;6.408;2022-09-01T06:42:46;0.60;;;0.60;;
50002;SDS011;35889;51.442;6.408;2022-09-01T06:45:16;0.70;;;0.70;;
50002;SDS011;35889;51.442;6.408;2022-09-01T06:47:45;0.60;;;0.60;;
50002;SDS011;35889;51.442;6.408;2022-09-01T06:50:12;0.60;;;0.60;;
50002;SDS011;35889;51.442;6.408;2022-09-01T06:52:42;0.60;;;0.60;;
50002;SDS011;35889;51.442;6.408;2022-09-01T06:55:13;0.60;;;0.60;;
50002;SDS011;35889;51.442;6.408;2022-09-01T07:00:09;0.60;;;0.60;;
50002;SDS011;35889;51.442;6.408;2022-09-01T07:02:51;0.60;;;0.60;;
50002;SDS011;35889;51.442;6.408;2022-09-01T07:05:36;0.60;;;0.60;;
50002;SDS011;35889;51.442;6.408;2022-09-01T07:08:03;0.60;;;0.60;;
50002;SDS011;35889;51.442;6.408;2022-09-01T07:11:01;0.60;;;0.60;;
50002;SDS011;35889;51.442;6.408;2022-09-01T07:13:31;0.65;;;0.65;;
50002;SDS011;35889;51.442;6.408;2022-09-01T07:15:58;0.60;;;0.60;;
50002;SDS011;35889;51.442;6.408;2022-09-01T07:18:24;0.60;;;0.60;;
50002;SDS011;35889;51.442;6.408;2022-09-01T07:20:51;0.70;;;0.70;;
50002;SDS011;35889;51.442;6.408;2022-09-01T07:23:18;0.60;;;0.60;;
50002;SDS011;35889;51.442;6.408;2022-09-01T07:25:46;0.60;;;0.60;;
50002;SDS011;35889;51.442;6.408;2022-09-01T07:28:22;0.65;;;0.65;;
50002;SDS011;35889;51.442;6.408;2022-09-01T07:30:48;0.60;;;0.60;;
50002;SDS011;35889;51.442;6.408;2022-09-01T07:33:19;0.60;;;0.60;;
50002;SDS011;35889;51.442;6.408;2022-09-01T07:35:50;0.70;;;0.70;;
50002;SDS011;35889;51.442;6.408;2022-09-01T07:38:21;0.68;;;0.68;;
50002;SDS011;35889;51.442;6.408;2022-09-01T07:40:48;0.70;;;0.70;;
50002;SDS011;35889;51.442;6.408;2022-09-01T07:43:39;0.63;;;0.63;;
50002;SDS011;35889;51.442;6.408;2022-09-01T07:46:28;0.60;;;0.60;;
50002;SDS011;35889;51.442;6.408;2022-09-01T07:48:59;0.60;;;0.60;;
50002;SDS011;35889;51.442;6.408;2022-09-01T07:51:26;0.60;;;0.60;;
50002;SDS011;35889;51.442;6.408;2022-09-01T07:53:53;0.70;;;0.70;;
50002;SDS011;35889;51.442;6.408;2022-09-01T07:56:21;0.70;;;0.70;;
50002;SDS011;35889;51.442;6.408;2022-09-01T07:58:51;0.60;;;0.60;;
50002;SDS011;35889;51.442;6.408;2022-09-01T08:01:21;0.70;;;0.70;;
50002;SDS011;35889;51.442;6.408;2022-09-01T08:03:50;0.60;;;0.60;;
50002;SDS011;35889;51.442;6.408;2022-09-01T08:06:21;0.60;;;0.60;;
50002;SDS011;35889;51.442;6.408;2022-09-01T08:08:50;0.70;;;0.70;;
50002;SDS011;35889;51.442;6.408;2022-09-01T08:11:18;0.65;;;0.65;;
50002;SDS011;35889;51.442;6.408;2022-09-01T08:13:45;0.60;;;0.60;;
50002;SDS011;35889;51.442;6.408;2022-09-01T08:16:11;0.60;;;0.60;;
50002;SDS011;35889;51.442;6.408;2022-09-01T08:18:39;0.60;;;0.60;;
50002;SDS011;35889;51.442;6.408;2022-09-01T08:21:07;0.70;;;0.70;;
50002;SDS011;35889;51.442;6.408;2022-09-01T08:23:38;0.63;;;0.63;;
50002;SDS011;35889;51.442;6.408;2022-09-01T08:26:09;0.60;;;0.60;;
50002;SDS011;35889;51.442;6.408;2022-09-01T08:28:37;0.70;;;0.70;;
50002;SDS011;35889;51.442;6.408;2022-09-01T08:31:10;0.60;;;0.60;;
50002;SDS011;35889;51.442;6.408;2022-09-01T08:33:38;0.60;;;0.60;;
50002;SDS011;35889;51.442;6.408;2022-09-01T08:36:08;0.60;;;0.60;;
50002;SDS011;35889;51.442;6.408;2022-09-01T08:38:36;0.60;;;0.60;;
50002;SDS011;35889;51.442;6.408;2022-09-01T08:41:02;0.70;;;0.70;;
50002;SDS011;35889;51.442;6.408;2022-09-01T08:43:49;0.60;;;0.60;;
50002;SDS011;35889;51.442;6.408;2022-09-01T08:49:03;0.70;;;0.70;;
50002;SDS011;35889;51.442;6.408;2022-09-01T08:54:31;0.70;;;0.70;;
50002;SDS011;35889;51.442;6.408;2022-09-01T08:57:31;0.60;;;0.60;;
50002;SDS011;35889;51.442;6.408;2022-09-01T09:00:20;0.70;;;0.70;;
50002;SDS011;35889;51.442;6.408;2022-09-01T09:05:30;0.60;;;0.60;;
50002;SDS011;35889;51.442;6.408;2022-09-01T09:15:53;0.70;;;0.70;;
50002;SDS011;35889;51.442;6.408;2022-09-01T09:20:55;0.60;;;0.60;;
50002;SDS011;35889;51.442;6.408;2022-09-01T09:23:33;0.60;;;0.60;;
50002;SDS011;35889;51.442;6.408;2022-09-01T09:26:00;0.60;;;0.60;;
50002;SDS011;35889;51.442;6.408;2022-09-01T09:28:26;0.70;;;0.70;;
50002;SDS011;35889;51.442;6.408;2022-09-01T09:31:23;0.60;;;0.60;;
50002;SDS011;35889;51.442;6.408;2022-09-01T09:34:29;0.60;;;0.60;;
50002;SDS011;35889;51.442;6.408;2022-09-01T09:42:26;0.60;;;0.60;;
50002;SDS011;35889;51.442;6.408;2022-09-01T09:44:52;0.70;;;0.70;;
50002;SDS011;35889;51.442;6.408;2022-09-01T09:47:33;0.60;;;0.60;;
50002;SDS011;35889;51.442;6.408;2022-09-01T09:55:58;0.65;;;0.65;;
50002;SDS011;35889;51.442;6.408;2022-09-01T09:58:33;0.60;;;0.60;;
50002;SDS011;35889;51.442;6.408;2022-09-01T10:03:40;0.60;;;0.60;;
50002;SDS011;35889;51.442;6.408;2022-09-01T10:06:10;0.70;;;0.70;;
50002;SDS011;35889;51.442;6.408;2022-09-01T10:08:40;0.60;;;0.60;;
50002;SDS011;35889;51.442;6.408;2022-09-01T10:11:09;0.60;;;0.60;;
50002;SDS011;35889;51.442;6.408;2022-09-01T10:13:54;0.60;;;0.60;;
50002;SDS011;35889;51.442;6.408;2022-09-01T10:16:30;0.60;;;0.60;;
50002;SDS011;35889;51.442;6.408;2022-09-01T10:18:59;0.60;;;0.60;;
50002;SDS011;35889;51.442;6.408;2022-09-01T10:24:49;0.60;;;0.60;;
50002;SDS011;35889;51.442;6.408;2022-09-01T10:26:58;0.60;;;0.60;;
50002;SDS011;35889;51.442;6.408;2022-09-01T10:29:27;0.60;;;0.60;;
50002;SDS011;35889;51.442;6.408;2022-09-01T10:32:25;0.60;;;0.60;;
50002;SDS011;35889;51.442;6.408;2022-09-01T10:34:55;0.60;;;0.60;;
50002;SDS011;35889;51.442;6.408;2022-09-01T10:37:21;0.60;;;0.60;;
50002;SDS011;35889;51.442;6.408;2022-09-01T10:42:35;0.60;;;0.60;;
50002;SDS011;35889;51.442;6.408;2022-09-01T10:45:01;0.70;;;0.70;;
50002;SDS011;35889;51.442;6.408;2022-09-01T10:47:28;0.68;;;0.68;;
50002;SDS011;35889;51.442;6.408;2022-09-01T10:50:02;0.60;;;0.60;;
50002;SDS011;35889;51.442;6.408;2022-09-01T10:55:05;0.70;;;0.70;;
50002;SDS011;35889;51.442;6.408;2022-09-01T10:57:38;0.60;;;0.60;;
50002;SDS011;35889;51.442;6.408;2022-09-01T11:00:42;0.70;;;0.70;;
50002;SDS011;35889;51.442;6.408;2022-09-01T11:06:10;0.60;;;0.60;;
50002;SDS011;35889;51.442;6.408;2022-09-01T11:10:56;0.60;;;0.60;;
50002;SDS011;35889;51.442;6.408;2022-09-01T11:13:40;0.60;;;0.60;;
50002;SDS011;35889;51.442;6.408;2022-09-01T11:16:35;0.60;;;0.60;;
50002;SDS011;35889;51.442;6.408;2022-09-01T11:24:49;0.70;;;0.70;;
50002;SDS011;35889;51.442;6.408;2022-09-01T11:27:54;0.63;;;0.63;;
50002;SDS011;35889;51.442;6.408;2022-09-01T11:30:18;0.60;;;0.60;;
50002;SDS011;35889;51.442;6.408;2022-09-01T11:32:45;0.60;;;0.60;;
50002;SDS011;35889;51.442;6.408;2022-09-01T11:35:17;0.60;;;0.60;;
50002;SDS011;35889;51.442;6.408;2022-09-01T11:37:49;0.60;;;0.60;;
50002;SDS011;35889;51.442;6.408;2022-09-01T11:40:21;0.60;;;0.60;;
50002;SDS011;35889;51.442;6.408;2022-09-01T11:42:50;0.65;;;0.65;;
50002;SDS011;35889;51.442;6.408;2022-09-01T11:45:25;0.60;;;0.60;;
50002;SDS011;35889;51.442;6.408;2022-09-01T11:48:06;0.60;;;0.60;;
50002;SDS011;35889;51.442;6.408;2022-09-01T11:50:34;0.60;;;0.60;;
50002;SDS011;35889;51.442;6.408;2022-09-01T11:53:05;0.60;;;0.60;;
50002;SDS011;35889;51.442;6.408;2022-09-01T11:55:37;0.65;;;0.65;;
50002;SDS011;35889;51.442;6.408;2022-09-01T11:58:05;0.60;;;0.60;;
50002;SDS011;35889;51.442;6.408;2022-09-01T12:00:34;0.60;;;0.60;;
50002;SDS011;35889;51.442;6.408;2022-09-01T12:03:21;0.60;;;0.60;;
50002;SDS011;35889;51.442;6.408;2022-09-01T12:05:53;0.70;;;0.70;;
50002;SDS011;35889;51.442;6.408;2022-09-01T12:08:26;0.70;;;0.70;;
50002;SDS011;35889;51.442;6.408;2022-09-01T12:13:33;0.60;;;0.60;;
50002;SDS011;35889;51.442;6.408;2022-09-01T12:16:00;0.60;;;0.60;;
50002;SDS011;35889;51.442;6.408;2022-09-01T12:18:31;0.60;;;0.60;;
50002;SDS011;35889;51.442;6.408;2022-09-01T12:24:13;0.60;;;0.60;;
50002;SDS011;35889;51.442;6.408;2022-09-01T12:26:41;0.60;;;0.60;;
50002;SDS011;35889;51.442;6.408;2022-09-01T12:29:08;0.70;;;0.70;;
50002;SDS011;35889;51.442;6.408;2022-09-01T12:31:35;0.70;;;0.70;;
50002;SDS011;35889;51.442;6.408;2022-09-01T12:34:01;0.63;;;0.63;;
50002;SDS011;35889;51.442;6.408;2022-09-01T12:39:18;0.60;;;0.60;;
50002;SDS011;35889;51.442;6.408;2022-09-01T12:41:46;0.60;;;0.60;;
50002;SDS011;35889;51.442;6.408;2022-09-01T12:46:52;0.60;;;0.60;;
50002;SDS011;35889;51.442;6.408;2022-09-01T12:49:39;0.65;;;0.65;;
50002;SDS011;35889;51.442;6.408;2022-09-01T12:54:49;0.60;;;0.60;;
50002;SDS011;35889;51.442;6.408;2022-09-01T13:03:04;0.60;;;0.60;;
50002;SDS011;35889;51.442;6.408;2022-09-01T13:08:01;0.60;;;0.60;;
50002;SDS011;35889;51.442;6.408;2022-09-01T13:10:36;0.60;;;0.60;;
50002;SDS011;35889;51.442;6.408;2022-09-01T13:13:22;0.60;;;0.60;;
50002;SDS011;35889;51.442;6.408;2022-09-01T13:15:50;0.70;;;0.70;;
50002;SDS011;35889;51.442;6.408;2022-09-01T13:18:17;0.60;;;0.60;;
50002;SDS011;35889;51.442;6.408;2022-09-01T13:20:44;0.60;;;0.60;;
50002;SDS011;35889;51.442;6.408;2022-09-01T13:23:10;0.70;;;0.70;;
50002;SDS011;35889;51.442;6.408;2022-09-01T13:25:36;0.70;;;0.70;;
50002;SDS011;35889;51.442;6.408;2022-09-01T13:28:02;0.70;;;0.70;;
50002;SDS011;35889;51.442;6.408;2022-09-01T13:30:28;0.60;;;0.60;;
50002;SDS011;35889;51.442;6.408;2022-09-01T13:32:54;0.60;;;0.60;;
50002;SDS011;35889;51.442;6.408;2022-09-01T13:35:20;0.60;;;0.60;;
50002;SDS011;35889;51.442;6.408;2022-09-01T13:37:47;0.70;;;0.70;;
50002;SDS011;35889;51.442;6.408;2022-09-01T13:40:13;0.60;;;0.60;;
50002;SDS011;35889;51.442;6.408;2022-09-01T13:42:43;0.60;;;0.60;;
50002;SDS011;35889;51.442;6.408;2022-09-01T13:45:12;0.60;;;0.60;;
50002;SDS011;35889;51.442;6.408;2022-09-01T13:47:39;0.60;;;0.60;;
50002;SDS011;35889;51.442;6.408;2022-09-01T13:50:05;0.60;;;0.60;;
50002;SDS011;35889;51.442;6.408;2022-09-01T13:52:30;0.60;;;0.60;;
50002;SDS011;35889;51.442;6.408;2022-09-01T13:54:57;0.70;;;0.70;;
50002;SDS011;35889;51.442;6.408;2022-09-01T13:57:22;0.60;;;0.60;;
50002;SDS011;35889;51.442;6.408;2022-09-01T13:59:48;0.60;;;0.60;;
50002;SDS011;35889;51.442;6.408;2022-09-01T14:02:13;0.68;;;0.68;;
50002;SDS011;35889;51.442;6.408;2022-09-01T14:04:39;0.60;;;0.60;;
50002;SDS011;35889;51.442;6.408;2022-09-01T14:07:04;0.60;;;0.60;;
50002;SDS011;35889;51.442;6.408;2022-09-01T14:09:30;0.60;;;0.60;;
50002;SDS011;35889;51.442;6.408;2022-09-01T14:11:56;1.00;;;1.00;;
50002;SDS011;35889;51.442;6.408;2022-09-01T14:14:21;0.60;;;0.60;;
50002;SDS011;35889;51.442;6.408;2022-09-01T14:16:47;0.70;;;0.70;;
50002;SDS011;35889;51.442;6.408;2022-09-01T14:19:13;0.60;;;0.60;;
50002;SDS011;35889;51.442;6.408;2022-09-01T14:21:39;1.10;;;1.10;;
50002;SDS011;35889;51.442;6.408;2022-09-01T14:24:05;1.10;;;1.10;;
50002;SDS011;35889;51.442;6.408;2022-09-01T14:26:31;0.60;;;0.60;;
50002;SDS011;35889;51.442;6.408;2022-09-01T14:28:56;0.80;;;0.80;;
50002;SDS011;35889;51.442;6.408;2022-09-01T14:31:22;0.70;;;0.70;;
50002;SDS011;35889;51.442;6.408;2022-09-01T14:33:47;0.70;;;0.70;;
50002;SDS011;35889;51.442;6.408;2022-09-01T14:36:18;0.70;;;0.70;;
50002;SDS011;35889;51.442;6.408;2022-09-01T14:38:46;0.70;;;0.70;;
50002;SDS011;35889;51.442;6.408;2022-09-01T14:43:44;1.10;;;1.10;;
50002;SDS011;35889;51.442;6.408;2022-09-01T14:46:10;1.10;;;1.10;;
50002;SDS011;35889;51.442;6.408;2022-09-01T14:48:37;0.90;;;0.90;;
50002;SDS011;35889;51.442;6.408;2022-09-01T14:51:04;1.10;;;1.10;;
50002;SDS011;35889;51.442;6.408;2022-09-01T14:53:30;1.10;;;1.10;;
50002;SDS011;35889;51.442;6.408;2022-09-01T14:55:56;1.10;;;1.10;;
50002;SDS011;35889;51.442;6.408;2022-09-01T14:58:23;1.10;;;1.10;;
50002;SDS011;35889;51.442;6.408;2022-09-01T15:00:50;1.02;;;1.02;;
50002;SDS011;35889;51.442;6.408;2022-09-01T15:03:17;1.10;;;1.10;;
50002;SDS011;35889;51.442;6.408;2022-09-01T15:05:43;1.13;;;1.13;;
50002;SDS011;35889;51.442;6.408;2022-09-01T15:08:08;1.10;;;1.10;;
50002;SDS011;35889;51.442;6.408;2022-09-01T15:10:35;0.80;;;0.80;;
50002;SDS011;35889;51.442;6.408;2022-09-01T15:13:00;1.10;;;1.10;;
50002;SDS011;35889;51.442;6.408;2022-09-01T15:15:27;1.10;;;1.10;;
50002;SDS011;35889;51.442;6.408;2022-09-01T15:17:53;0.80;;;0.80;;
50002;SDS011;35889;51.442;6.408;2022-09-01T15:20:19;1.10;;;1.10;;
50002;SDS011;35889;51.442;6.408;2022-09-01T15:23:03;1.10;;;1.10;;
50002;SDS011;35889;51.442;6.408;2022-09-01T15:25:29;0.95;;;0.95;;
50002;SDS011;35889;51.442;6.408;2022-09-01T15:27:55;0.80;;;0.80;;
50002;SDS011;35889;51.442;6.408;2022-09-01T15:30:20;1.10;;;1.10;;
50002;SDS011;35889;51.442;6.408;2022-09-01T15:32:47;1.10;;;1.10;;
50002;SDS011;35889;51.442;6.408;2022-09-01T15:35:14;1.00;;;1.00;;
50002;SDS011;35889;51.442;6.408;2022-09-01T15:37:40;1.10;;;1.10;;
50002;SDS011;35889;51.442;6.408;2022-09-01T15:40:06;1.10;;;1.10;;
50002;SDS011;35889;51.442;6.408;2022-09-01T15:42:33;1.10;;;1.10;;
50002;SDS011;35889;51.442;6.408;2022-09-01T15:45:00;1.10;;;1.10;;
50002;SDS011;35889;51.442;6.408;2022-09-01T15:47:30;1.10;;;1.10;;
50002;SDS011;35889;51.442;6.408;2022-09-01T15:49:55;1.00;;;1.00;;
50002;SDS011;35889;51.442;6.408;2022-09-01T15:52:21;0.70;;;0.70;;
50002;SDS011;35889;51.442;6.408;2022-09-01T15:54:46;0.70;;;0.70;;
50002;SDS011;35889;51.442;6.408;2022-09-01T15:57:12;1.00;;;1.00;;
50002;SDS011;35889;51.442;6.408;2022-09-01T15:59:37;1.00;;;1.00;;
50002;SDS011;35889;51.442;6.408;2022-09-01T16:02:05;1.00;;;1.00;;
50002;SDS011;35889;51.442;6.408;2022-09-01T16:04:31;0.60;;;0.60;;
50002;SDS011;35889;51.442;6.408;2022-09-01T16:06:57;0.60;;;0.60;;
50002;SDS011;35889;51.442;6.408;2022-09-01T16:09:22;0.70;;;0.70;;
50002;SDS011;35889;51.442;6.408;2022-09-01T16:11:49;0.70;;;0.70;;
50002;SDS011;35889;51.442;6.408;2022-09-01T16:14:15;0.60;;;0.60;;
50002;SDS011;35889;51.442;6.408;2022-09-01T16:24:41;0.60;;;0.60;;
50002;SDS011;35889;51.442;6.408;2022-09-01T16:27:08;0.60;;;0.60;;
50002;SDS011;35889;51.442;6.408;2022-09-01T16:32:04;0.60;;;0.60;;
50002;SDS011;35889;51.442;6.408;2022-09-01T16:34:30;0.60;;;0.60;;
50002;SDS011;35889;51.442;6.408;2022-09-01T16:39:37;0.60;;;0.60;;
50002;SDS011;35889;51.442;6.408;2022-09-01T16:42:27;0.60;;;0.60;;
50002;SDS011;35889;51.442;6.408;2022-09-01T17:04:01;0.60;;;0.60;;
50002;SDS011;35889;51.442;6.408;2022-09-01T17:06:32;0.60;;;0.60;;
50002;SDS011;35889;51.442;6.408;2022-09-01T17:09:05;0.65;;;0.65;;
50002;SDS011;35889;51.442;6.408;2022-09-01T17:11:51;0.60;;;0.60;;